createdAt,value
2018-08-23T00:00:22.596Z,22.90
2018-08-23T00:02:51.057Z,22.90
2018-08-23T00:05:20.744Z,22.80
2018-08-23T00:07:58.817Z,22.80
2018-08-23T00:10:26.227Z,22.80
2018-08-23T00:12:59.098Z,22.70
2018-08-23T00:15:30.836Z,22.70
2018-08-23T00:17:58.231Z,22.70
2018-08-23T00:20:25.651Z,22.70
2018-08-23T00:22:53.577Z,22.70
2018-08-23T00:25:21.052Z,22.60
2018-08-23T00:27:48.503Z,22.50
2018-08-23T00:30:17.855Z,22.50
2018-08-23T00:32:45.323Z,22.50
2018-08-23T00:35:18.695Z,22.40
2018-08-23T00:37:46.533Z,22.50
2018-08-23T00:40:14.736Z,22.40
2018-08-23T00:42:44.447Z,22.30
2018-08-23T00:45:14.803Z,22.30
2018-08-23T00:47:42.299Z,22.30
2018-08-23T00:50:09.956Z,22.30
2018-08-23T00:52:43.240Z,22.30
2018-08-23T00:55:29.189Z,22.30
2018-08-23T00:57:56.712Z,22.30
2018-08-23T01:00:25.376Z,22.30
2018-08-23T01:03:01.309Z,22.30
2018-08-23T01:05:34.355Z,22.30
2018-08-23T01:08:02.164Z,22.30
2018-08-23T01:10:29.633Z,22.30
2018-08-23T01:12:59.440Z,22.30
2018-08-23T01:15:27.229Z,22.20
2018-08-23T01:18:07.491Z,22.20
2018-08-23T01:20:34.954Z,22.20
2018-08-23T01:23:02.527Z,22.20
2018-08-23T01:25:31.952Z,22.20
2018-08-23T01:27:59.375Z,22.20
2018-08-23T01:30:26.759Z,22.20
2018-08-23T01:32:54.260Z,22.20
2018-08-23T01:35:21.643Z,22.10
2018-08-23T01:37:49.051Z,22.20
2018-08-23T01:40:16.522Z,22.10
2018-08-23T01:42:43.923Z,22.10
2018-08-23T01:45:11.772Z,22.00
2018-08-23T01:47:44.958Z,22.00
2018-08-23T01:50:13.328Z,21.90
2018-08-23T01:52:44.676Z,21.90
2018-08-23T01:55:14.268Z,21.80
2018-08-23T01:57:41.883Z,21.80
2018-08-23T02:00:10.305Z,21.80
2018-08-23T02:02:38.124Z,21.70
2018-08-23T02:05:06.020Z,21.70
2018-08-23T02:07:33.523Z,21.70
2018-08-23T02:10:02.501Z,21.60
2018-08-23T02:12:30.044Z,21.60
2018-08-23T02:15:00.760Z,21.50
2018-08-23T02:17:32.362Z,21.50
2018-08-23T02:19:59.860Z,21.40
2018-08-23T02:22:27.295Z,21.40
2018-08-23T02:24:54.677Z,21.30
2018-08-23T02:27:22.678Z,21.20
2018-08-23T02:29:50.108Z,21.20
2018-08-23T02:32:17.633Z,21.20
2018-08-23T02:34:46.695Z,21.10
2018-08-23T02:37:15.323Z,21.10
2018-08-23T02:39:43.665Z,21.10
2018-08-23T02:42:13.727Z,21.10
2018-08-23T02:44:42.142Z,21.00
2018-08-23T02:47:09.431Z,20.90
2018-08-23T02:49:36.879Z,20.90
2018-08-23T02:52:04.539Z,20.90
2018-08-23T02:54:32.237Z,20.80
2018-08-23T02:57:00.323Z,20.80
2018-08-23T02:59:28.404Z,20.80
2018-08-23T03:01:55.832Z,20.80
2018-08-23T03:04:25.496Z,20.70
2018-08-23T03:07:00.743Z,20.70
2018-08-23T03:09:29.647Z,20.60
2018-08-23T03:11:58.071Z,20.60
2018-08-23T03:14:26.404Z,20.60
2018-08-23T03:17:26.699Z,20.50
2018-08-23T03:19:58.596Z,20.50
2018-08-23T03:22:28.889Z,20.40
2018-08-23T03:24:58.064Z,20.40
2018-08-23T03:27:25.503Z,20.40
2018-08-23T03:29:52.975Z,20.30
2018-08-23T03:32:20.385Z,20.30
2018-08-23T03:34:47.772Z,20.30
2018-08-23T03:37:15.415Z,20.30
2018-08-23T03:39:42.830Z,20.20
2018-08-23T03:42:10.216Z,20.20
2018-08-23T03:44:38.433Z,20.10
2018-08-23T03:47:05.890Z,20.10
2018-08-23T03:49:39.119Z,20.10
2018-08-23T03:52:06.503Z,20.10
2018-08-23T03:54:33.891Z,20.00
2018-08-23T03:57:12.104Z,20.00
2018-08-23T03:59:42.199Z,19.90
2018-08-23T04:02:09.771Z,19.90
2018-08-23T04:04:37.188Z,19.90
2018-08-23T04:07:04.647Z,19.90
2018-08-23T04:09:32.068Z,19.90
2018-08-23T04:12:00.393Z,19.80
2018-08-23T04:14:27.836Z,19.80
2018-08-23T04:16:55.204Z,19.70
2018-08-23T04:19:22.624Z,19.80
2018-08-23T04:21:50.004Z,19.70
2018-08-23T04:24:17.392Z,19.80
2018-08-23T04:26:44.700Z,19.70
2018-08-23T04:29:13.981Z,19.70
2018-08-23T04:31:41.332Z,19.60
2018-08-23T04:34:08.702Z,19.60
2018-08-23T04:36:38.073Z,19.60
2018-08-23T04:39:10.092Z,19.60
2018-08-23T04:41:37.455Z,19.60
2018-08-23T04:44:13.072Z,19.60
2018-08-23T04:46:40.436Z,19.60
2018-08-23T04:49:07.836Z,19.60
2018-08-23T04:51:36.415Z,19.60
2018-08-23T04:54:03.891Z,19.60
2018-08-23T04:56:31.563Z,19.60
2018-08-23T04:58:59.083Z,19.70
2018-08-23T05:01:26.463Z,19.70
2018-08-23T05:03:53.844Z,19.70
2018-08-23T05:06:21.201Z,19.70
2018-08-23T05:08:48.907Z,19.70
2018-08-23T05:11:16.252Z,19.80
2018-08-23T05:13:43.610Z,19.80
2018-08-23T05:16:10.981Z,19.80
2018-08-23T05:18:38.316Z,19.90
2018-08-23T05:21:07.132Z,19.90
2018-08-23T05:23:34.580Z,20.00
2018-08-23T05:26:19.863Z,20.10
2018-08-23T05:29:00.025Z,20.10
2018-08-23T05:31:28.781Z,20.10
2018-08-23T05:34:01.149Z,20.20
2018-08-23T05:36:28.492Z,20.20
2018-08-23T05:38:55.856Z,20.20
2018-08-23T05:41:23.235Z,20.40
2018-08-23T05:43:59.316Z,20.40
2018-08-23T05:46:26.995Z,20.50
2018-08-23T05:48:54.359Z,20.60
2018-08-23T05:51:21.756Z,20.70
2018-08-23T05:53:51.960Z,20.80
2018-08-23T05:56:19.728Z,21.00
2018-08-23T05:58:47.088Z,21.30
2018-08-23T06:01:14.708Z,21.60
2018-08-23T06:03:42.059Z,21.80
2018-08-23T06:06:09.436Z,22.00
2018-08-23T06:08:41.747Z,22.20
2018-08-23T06:11:10.187Z,22.30
2018-08-23T06:13:37.888Z,22.50
2018-08-23T06:16:05.384Z,22.50
2018-08-23T06:18:34.255Z,22.60
2018-08-23T06:21:01.631Z,22.60
2018-08-23T06:24:09.728Z,22.70
2018-08-23T06:26:44.900Z,22.60
2018-08-23T06:29:25.737Z,22.60
2018-08-23T06:32:10.803Z,22.60
2018-08-23T06:34:49.391Z,22.70
2018-08-23T06:37:17.192Z,22.80
2018-08-23T06:39:44.383Z,23.00
2018-08-23T06:42:11.558Z,23.20
2018-08-23T06:44:49.539Z,23.30
2018-08-23T06:47:18.075Z,23.40
2018-08-23T06:49:46.384Z,23.50
2018-08-23T06:52:37.192Z,23.60
2018-08-23T06:55:04.665Z,23.70
2018-08-23T06:57:42.745Z,23.80
2018-08-23T07:00:09.999Z,23.90
2018-08-23T07:02:41.775Z,23.90
2018-08-23T07:05:09.463Z,24.00
2018-08-23T07:07:36.725Z,24.10
2018-08-23T07:10:04.084Z,24.20
2018-08-23T07:12:31.215Z,24.10
2018-08-23T07:14:58.352Z,24.10
2018-08-23T07:17:27.351Z,24.30
2018-08-23T07:19:54.537Z,24.40
2018-08-23T07:22:23.031Z,24.40
2018-08-23T07:24:51.387Z,24.40
2018-08-23T07:27:19.917Z,24.60
2018-08-23T07:29:48.484Z,24.70
2018-08-23T07:32:21.924Z,24.90
2018-08-23T07:34:58.718Z,25.00
2018-08-23T07:37:27.193Z,24.90
2018-08-23T07:40:15.026Z,24.90
2018-08-23T07:42:43.449Z,24.90
2018-08-23T07:45:10.905Z,25.00
2018-08-23T07:47:40.631Z,25.00
2018-08-23T07:50:07.860Z,25.10
2018-08-23T07:52:35.731Z,24.90
2018-08-23T07:55:03.028Z,24.90
2018-08-23T07:57:32.431Z,24.70
2018-08-23T08:00:00.955Z,24.80
2018-08-23T08:02:28.640Z,24.70
2018-08-23T08:04:56.435Z,24.60
2018-08-23T08:07:25.834Z,24.70
2018-08-23T08:09:55.136Z,24.70
2018-08-23T08:12:38.037Z,24.80
2018-08-23T08:15:11.232Z,24.80
2018-08-23T08:17:38.952Z,25.10
2018-08-23T08:20:07.560Z,25.20
2018-08-23T08:22:34.812Z,25.30
2018-08-23T08:25:08.096Z,25.50
2018-08-23T08:27:37.451Z,25.70
2018-08-23T08:30:06.587Z,25.70
2018-08-23T08:32:33.919Z,25.90
2018-08-23T08:35:01.412Z,26.00
2018-08-23T08:37:28.794Z,26.10
2018-08-23T08:39:59.767Z,26.40
2018-08-23T08:42:29.443Z,26.40
2018-08-23T08:45:01.453Z,26.20
2018-08-23T08:47:28.929Z,26.00
2018-08-23T08:49:56.324Z,26.10
2018-08-23T08:52:26.480Z,26.10
2018-08-23T08:54:53.823Z,26.20
2018-08-23T08:57:26.081Z,26.40
2018-08-23T08:59:54.383Z,26.50
2018-08-23T09:02:21.809Z,26.70
2018-08-23T09:04:53.668Z,26.90
2018-08-23T09:07:27.000Z,27.00
2018-08-23T09:09:54.450Z,27.10
2018-08-23T09:12:21.772Z,27.10
2018-08-23T09:14:53.848Z,27.20
2018-08-23T09:17:43.249Z,27.30
2018-08-23T09:20:16.412Z,27.60
2018-08-23T09:22:51.164Z,27.60
2018-08-23T09:25:22.866Z,27.70
2018-08-23T09:27:50.648Z,27.50
2018-08-23T09:30:26.268Z,27.70
2018-08-23T09:32:53.936Z,27.90
2018-08-23T09:35:25.928Z,28.10
2018-08-23T09:37:55.599Z,28.20
2018-08-23T09:40:26.488Z,28.40
2018-08-23T09:42:53.941Z,28.20
2018-08-23T09:45:21.341Z,28.50
2018-08-23T09:47:48.725Z,28.60
2018-08-23T09:50:16.483Z,29.00
2018-08-23T09:52:51.159Z,29.30
2018-08-23T09:55:19.733Z,29.60
2018-08-23T09:57:47.510Z,29.60
2018-08-23T10:00:20.674Z,30.00
2018-08-23T10:02:56.473Z,30.30
2018-08-23T10:05:29.652Z,30.50
2018-08-23T10:08:02.762Z,30.60
2018-08-23T10:10:38.388Z,30.70
2018-08-23T10:13:13.309Z,30.90
2018-08-23T10:15:43.856Z,31.10
2018-08-23T10:18:18.357Z,31.10
2018-08-23T10:20:53.664Z,30.60
2018-08-23T10:23:22.639Z,30.20
2018-08-23T10:25:52.982Z,29.90
2018-08-23T10:28:25.316Z,29.60
2018-08-23T10:30:53.030Z,29.10
2018-08-23T10:33:20.435Z,28.70
2018-08-23T10:35:50.003Z,29.00
2018-08-23T10:38:18.879Z,28.90
2018-08-23T10:40:51.937Z,28.70
2018-08-23T10:43:25.076Z,28.80
2018-08-23T10:45:52.692Z,28.50
2018-08-23T10:48:20.089Z,28.30
2018-08-23T10:50:48.488Z,28.10
2018-08-23T10:53:17.511Z,28.10
2018-08-23T10:55:45.225Z,28.40
2018-08-23T10:58:12.583Z,28.80
2018-08-23T11:00:40.063Z,29.10
2018-08-23T11:03:07.413Z,29.20
2018-08-23T11:05:34.822Z,29.30
2018-08-23T11:08:10.771Z,29.30
2018-08-23T11:10:44.024Z,29.30
2018-08-23T11:13:17.066Z,29.30
2018-08-23T11:15:47.832Z,28.90
2018-08-23T11:18:20.859Z,28.60
2018-08-23T11:20:49.448Z,28.30
2018-08-23T11:23:24.399Z,28.40
2018-08-23T11:25:53.498Z,28.20
2018-08-23T11:28:22.055Z,28.10
2018-08-23T11:30:50.163Z,28.70
2018-08-23T11:33:17.616Z,29.40
2018-08-23T11:35:45.072Z,30.10
2018-08-23T11:38:12.584Z,30.50
2018-08-23T11:40:41.432Z,30.80
2018-08-23T11:43:08.888Z,31.00
2018-08-23T11:45:36.301Z,31.20
2018-08-23T11:48:03.736Z,31.00
2018-08-23T11:50:31.133Z,31.30
2018-08-23T11:52:58.618Z,30.90
2018-08-23T11:55:28.304Z,30.90
2018-08-23T11:57:56.539Z,31.40
2018-08-23T12:00:23.955Z,31.80
2018-08-23T12:02:51.331Z,31.40
2018-08-23T12:05:18.816Z,31.00
2018-08-23T12:07:47.682Z,30.40
2018-08-23T12:10:18.796Z,30.60
2018-08-23T12:12:47.092Z,30.80
2018-08-23T12:15:21.574Z,31.20
2018-08-23T12:17:49.578Z,31.30
2018-08-23T12:20:18.784Z,31.70
2018-08-23T12:22:46.204Z,31.70
2018-08-23T12:25:13.733Z,31.90
2018-08-23T12:27:41.647Z,31.80
2018-08-23T12:30:09.041Z,32.10
2018-08-23T12:32:36.525Z,32.00
2018-08-23T12:35:06.970Z,31.90
2018-08-23T12:37:40.268Z,31.90
2018-08-23T12:40:13.463Z,31.90
2018-08-23T12:42:48.539Z,32.00
2018-08-23T12:45:16.018Z,32.20
2018-08-23T12:47:43.852Z,32.30
2018-08-23T12:50:11.249Z,32.30
2018-08-23T12:52:38.733Z,32.20
2018-08-23T12:55:06.208Z,31.90
2018-08-23T12:57:35.901Z,31.80
2018-08-23T13:00:03.446Z,31.90
2018-08-23T13:02:31.070Z,31.50
2018-08-23T13:04:58.359Z,31.60
2018-08-23T13:07:25.792Z,31.50
2018-08-23T13:09:53.180Z,31.60
2018-08-23T13:12:25.536Z,31.40
2018-08-23T13:14:52.900Z,31.30
2018-08-23T13:17:20.328Z,30.90
2018-08-23T13:19:47.740Z,30.60
2018-08-23T13:22:21.245Z,30.90
2018-08-23T13:24:56.150Z,31.00
2018-08-23T13:27:28.175Z,31.10
2018-08-23T13:29:55.454Z,31.10
2018-08-23T13:32:22.845Z,31.20
2018-08-23T13:34:55.409Z,31.30
2018-08-23T13:37:22.907Z,31.20
2018-08-23T13:39:50.276Z,31.20
2018-08-23T13:42:18.106Z,31.30
2018-08-23T13:44:45.495Z,31.20
2018-08-23T13:47:12.860Z,31.00
2018-08-23T13:49:40.210Z,30.70
2018-08-23T13:52:09.476Z,30.40
2018-08-23T13:54:36.988Z,30.20
2018-08-23T13:57:04.292Z,30.30
2018-08-23T13:59:31.624Z,30.30
2018-08-23T14:01:59.836Z,30.30
2018-08-23T14:04:27.163Z,30.40
2018-08-23T14:06:54.525Z,30.40
2018-08-23T14:09:22.044Z,30.20
2018-08-23T14:11:49.448Z,30.00
2018-08-23T14:14:16.865Z,29.80
2018-08-23T14:16:49.052Z,29.50
2018-08-23T14:19:16.331Z,29.30
2018-08-23T14:21:43.463Z,29.40
2018-08-23T14:24:10.655Z,29.60
2018-08-23T14:26:37.791Z,29.60
2018-08-23T14:29:04.951Z,29.70
2018-08-23T14:31:32.115Z,29.70
2018-08-23T14:33:59.451Z,29.90
2018-08-23T14:36:26.613Z,30.00
2018-08-23T14:38:53.883Z,29.80
2018-08-23T14:41:20.964Z,29.60
2018-08-23T14:43:48.296Z,29.40
2018-08-23T14:46:21.199Z,29.50
2018-08-23T14:48:48.686Z,29.70
2018-08-23T14:51:17.547Z,29.80
2018-08-23T14:53:45.834Z,29.80
2018-08-23T14:56:18.879Z,30.00
2018-08-23T14:58:46.128Z,30.20
2018-08-23T15:01:13.284Z,30.10
2018-08-23T15:03:40.447Z,29.90
2018-08-23T15:06:07.672Z,29.90
2018-08-23T15:08:34.836Z,29.60
2018-08-23T15:11:02.045Z,29.40
2018-08-23T15:13:29.176Z,29.30
2018-08-23T15:15:56.325Z,29.00
2018-08-23T15:18:23.588Z,28.80
2018-08-23T15:20:51.141Z,28.80
2018-08-23T15:23:18.371Z,28.90
2018-08-23T15:25:45.568Z,28.90
2018-08-23T15:28:12.773Z,29.00
2018-08-23T15:30:40.023Z,29.10
2018-08-23T15:33:07.349Z,29.00
2018-08-23T15:35:34.487Z,28.80
2018-08-23T15:38:01.697Z,28.90
2018-08-23T15:40:28.881Z,28.80
2018-08-23T15:42:56.087Z,28.80
2018-08-23T15:45:23.373Z,28.60
2018-08-23T15:47:50.679Z,28.60
2018-08-23T15:50:18.794Z,28.40
2018-08-23T15:52:46.015Z,28.40
2018-08-23T15:55:13.446Z,28.20
2018-08-23T15:57:41.380Z,28.10
2018-08-23T16:00:09.438Z,28.00
2018-08-23T16:02:36.679Z,27.90
2018-08-23T16:05:04.256Z,27.80
2018-08-23T16:07:31.608Z,27.60
2018-08-23T16:09:59.356Z,27.60
2018-08-23T16:12:26.563Z,27.60
2018-08-23T16:14:53.816Z,27.60
2018-08-23T16:17:26.853Z,27.60
2018-08-23T16:19:59.888Z,27.60
2018-08-23T16:22:27.366Z,27.50
2018-08-23T16:24:54.598Z,27.60
2018-08-23T16:27:21.788Z,27.60
2018-08-23T16:29:50.454Z,27.50
2018-08-23T16:32:23.535Z,27.40
2018-08-23T16:34:50.790Z,27.30
2018-08-23T16:37:18.006Z,27.20
2018-08-23T16:39:45.276Z,27.10
2018-08-23T16:42:12.531Z,27.00
2018-08-23T16:44:39.785Z,26.90
2018-08-23T16:47:07.407Z,27.00
2018-08-23T16:49:34.628Z,26.80
2018-08-23T16:52:01.863Z,26.80
2018-08-23T16:54:29.043Z,26.70
2018-08-23T16:56:56.476Z,26.50
2018-08-23T16:59:23.934Z,26.40
2018-08-23T17:01:51.412Z,26.50
2018-08-23T17:04:18.830Z,26.50
2018-08-23T17:06:46.231Z,26.20
2018-08-23T17:09:13.695Z,26.10
2018-08-23T17:11:41.063Z,26.00
2018-08-23T17:14:08.547Z,25.90
2018-08-23T17:16:41.664Z,25.80
2018-08-23T17:19:09.112Z,25.70
2018-08-23T17:21:36.500Z,25.60
2018-08-23T17:24:03.854Z,25.50
2018-08-23T17:26:31.374Z,25.40
2018-08-23T17:28:58.783Z,25.30
2018-08-23T17:31:26.193Z,25.30
2018-08-23T17:33:53.559Z,25.40
2018-08-23T17:36:20.892Z,25.40
2018-08-23T17:38:48.235Z,25.50
2018-08-23T17:41:15.607Z,25.60
2018-08-23T17:43:42.980Z,25.60
2018-08-23T17:46:10.444Z,25.60
2018-08-23T17:48:37.800Z,25.50
2018-08-23T17:51:05.295Z,25.50
2018-08-23T17:53:32.703Z,25.50
2018-08-23T17:56:00.157Z,25.50
2018-08-23T17:58:27.508Z,25.50
2018-08-23T18:00:54.906Z,25.50
2018-08-23T18:03:22.259Z,25.50
2018-08-23T18:05:49.668Z,25.40
2018-08-23T18:08:17.024Z,25.20
2018-08-23T18:10:44.392Z,25.20
2018-08-23T18:13:11.708Z,25.10
2018-08-23T18:15:44.731Z,25.10
2018-08-23T18:18:12.107Z,25.00
2018-08-23T18:20:39.481Z,25.00
2018-08-23T18:23:06.828Z,25.00
2018-08-23T18:25:34.289Z,24.90
2018-08-23T18:28:01.824Z,24.80
2018-08-23T18:30:29.212Z,24.70
2018-08-23T18:32:56.593Z,24.60
2018-08-23T18:35:24.174Z,24.60
2018-08-23T18:37:51.723Z,24.30
2018-08-23T18:40:19.199Z,24.20
2018-08-23T18:42:46.639Z,24.10
2018-08-23T18:45:14.044Z,24.10
2018-08-23T18:47:41.768Z,24.10
2018-08-23T18:50:09.155Z,24.00
2018-08-23T18:52:36.532Z,24.00
2018-08-23T18:55:07.046Z,24.00
2018-08-23T18:57:34.697Z,23.90
2018-08-23T19:00:02.374Z,23.80
2018-08-23T19:02:29.689Z,23.80
2018-08-23T19:04:57.492Z,23.80
2018-08-23T19:07:34.467Z,23.80
2018-08-23T19:10:01.946Z,23.80
2018-08-23T19:12:30.118Z,23.70
2018-08-23T19:14:57.531Z,23.70
2018-08-23T19:17:34.568Z,23.70
2018-08-23T19:20:01.963Z,23.70
2018-08-23T19:22:32.283Z,23.60
2018-08-23T19:24:59.773Z,23.40
2018-08-23T19:27:27.063Z,23.40
2018-08-23T19:29:58.745Z,23.30
2018-08-23T19:32:26.147Z,23.40
2018-08-23T19:34:53.537Z,23.40
2018-08-23T19:37:20.972Z,23.40
2018-08-23T19:39:48.364Z,23.40
2018-08-23T19:42:15.793Z,23.40
2018-08-23T19:44:50.122Z,23.40
2018-08-23T19:47:23.271Z,23.30
2018-08-23T19:49:52.668Z,23.30
2018-08-23T19:52:20.531Z,23.20
2018-08-23T19:54:48.124Z,23.20
2018-08-23T19:57:17.181Z,23.00
2018-08-23T19:59:44.678Z,23.10
2018-08-23T20:02:12.081Z,23.10
2018-08-23T20:04:40.523Z,23.10
2018-08-23T20:07:10.268Z,22.90
2018-08-23T20:09:37.939Z,22.90
2018-08-23T20:12:05.311Z,22.70
2018-08-23T20:14:33.183Z,22.70
2018-08-23T20:17:00.802Z,22.70
2018-08-23T20:19:28.365Z,22.70
2018-08-23T20:21:56.180Z,22.60
2018-08-23T20:24:23.527Z,22.40
2018-08-23T20:26:50.886Z,22.50
2018-08-23T20:29:18.244Z,22.50
2018-08-23T20:31:45.594Z,22.50
2018-08-23T20:34:12.995Z,22.50
2018-08-23T20:36:40.375Z,22.50
2018-08-23T20:39:09.999Z,22.30
2018-08-23T20:41:37.288Z,22.40
2018-08-23T20:44:04.552Z,22.40
2018-08-23T20:46:32.000Z,22.30
2018-08-23T20:48:59.191Z,22.20
2018-08-23T20:51:26.469Z,22.20
2018-08-23T20:53:53.814Z,22.20
2018-08-23T20:56:21.169Z,22.20
2018-08-23T20:58:48.463Z,22.00
2018-08-23T21:01:15.715Z,21.90
2018-08-23T21:03:42.949Z,22.00
2018-08-23T21:06:10.085Z,21.90
2018-08-23T21:08:37.275Z,21.90
2018-08-23T21:11:04.476Z,21.90
2018-08-23T21:13:31.620Z,21.80
2018-08-23T21:15:58.868Z,21.80
2018-08-23T21:18:26.047Z,21.80
2018-08-23T21:20:53.312Z,21.80
2018-08-23T21:23:20.557Z,21.70
2018-08-23T21:25:47.799Z,21.70
2018-08-23T21:28:14.987Z,21.70
2018-08-23T21:30:42.211Z,21.70
2018-08-23T21:33:09.388Z,21.70
2018-08-23T21:35:38.524Z,21.70
2018-08-23T21:38:05.828Z,21.60
2018-08-23T21:40:33.040Z,21.50
2018-08-23T21:43:00.382Z,21.50
2018-08-23T21:45:27.571Z,21.50
2018-08-23T21:47:54.795Z,21.50
2018-08-23T21:50:22.081Z,21.50
2018-08-23T21:52:51.218Z,21.50
2018-08-23T21:55:22.566Z,21.60
2018-08-23T21:57:49.800Z,21.60
2018-08-23T22:00:17.024Z,21.60
2018-08-23T22:02:44.237Z,21.70
2018-08-23T22:05:11.457Z,21.70
2018-08-23T22:07:38.719Z,21.50
2018-08-23T22:10:06.006Z,21.30
2018-08-23T22:12:33.108Z,21.30
2018-08-23T22:15:00.344Z,21.30
2018-08-23T22:17:27.595Z,21.40
2018-08-23T22:19:54.879Z,21.50
2018-08-23T22:22:22.106Z,21.30
2018-08-23T22:24:49.428Z,21.30
2018-08-23T22:27:16.623Z,21.30
2018-08-23T22:29:43.803Z,21.40
2018-08-23T22:32:10.935Z,21.50
2018-08-23T22:34:38.099Z,21.40
2018-08-23T22:37:05.279Z,21.40
2018-08-23T22:39:32.488Z,21.50
2018-08-23T22:41:59.856Z,21.60
2018-08-23T22:44:27.040Z,21.30
2018-08-23T22:46:54.252Z,21.30
2018-08-23T22:49:21.721Z,21.30
2018-08-23T22:51:48.876Z,21.10
2018-08-23T22:54:16.188Z,21.20
2018-08-23T22:56:43.740Z,21.20
2018-08-23T22:59:10.875Z,21.20
2018-08-23T23:01:38.663Z,21.10
2018-08-23T23:04:11.645Z,21.00
2018-08-23T23:06:38.828Z,21.00
2018-08-23T23:09:07.921Z,21.10
2018-08-23T23:11:35.180Z,21.10
2018-08-23T23:14:02.339Z,21.10
2018-08-23T23:16:29.574Z,21.30
2018-08-23T23:18:56.786Z,21.20
2018-08-23T23:21:25.688Z,21.30
2018-08-23T23:23:53.025Z,21.20
2018-08-23T23:26:20.193Z,21.40
2018-08-23T23:28:47.335Z,21.40
2018-08-23T23:31:14.500Z,21.40
2018-08-23T23:33:41.823Z,21.40
2018-08-23T23:36:08.971Z,21.40
2018-08-23T23:38:36.224Z,21.40
2018-08-23T23:41:03.400Z,21.40
2018-08-23T23:43:30.688Z,21.40
2018-08-23T23:45:57.981Z,21.30
2018-08-23T23:48:25.288Z,21.20
2018-08-23T23:50:52.522Z,21.20
2018-08-23T23:53:19.673Z,21.30
2018-08-23T23:55:46.817Z,21.20
2018-08-23T23:58:13.978Z,21.10
